Wheeler Sack Army Air Field
KGTB : now visible

Airfield :











YOU CAN JOIN US ON...

 
LOGIN :

Register | Disclaimer

   EN    FR    IT 

 









Legend :    VFR   Marginal VFR   IFR   Intensive IFR   Very Intensive IFR
Visi :
Ceiling :
>= 8 km
>= 3000ft
5 to 8 km
1000 to 3000 ft
1500m to 5 km
500 to 1000 ft
800 to 1500m
200 to 500 ft
< 800m
< 200 ft
Symbols :   Thunderstorms  Fog  Heavy snow  Heavy precipitations  Wind > 20 kt






- Airport Elevation : 688 ft


KGTB - Wheeler Sack Army Air Field

CURRENT METAR :
  • 141656Z AUTO 19014KT 10SM SCT024 OVC032 M02/M06 A3017 RMK AO2 SLP228 T10171065

EXPIRED METARs :
  • 141556Z 18012KT 10SM BKN022 BKN030 OVC038 M03/M07 A3019 RMK AO2A SNE1456E05DZB05E10DZB17E18SNB18E39 CIG 022V030 BKN022 V SCT SLP235 P0000 T10341069
  • 141424Z 16012KT 9SM -SN SCT005 BKN010 BKN027 BKN046 OVC055 M04/M08 A3020 RMK AO2A SNB1357E12SNB22 CIG 010V027 BKN010 V SCT SLP239
  • 141407Z 17011KT 6SM -SN SCT005 SCT012 BKN019 BKN045 OVC055 M04/M08 A3020 RMK AO2A SNB1357 CIG 005V019 SLP239
  • 141357Z AUTO 17015KT 9SM -UP BKN005 BKN010 BKN019 OVC034 M04/M08 A3020 RMK AO2 UPB57 CIG 005V020 BKN005 V SCT SLP239

TAF AMD TAF KGTB
Valid from the 14 at 14:00 until the 15 at 15:00 UTC


141430Z 1414/1515 17012G20KT 9999 SCT005 BKN025 620259 530103 QNH3016INS
TEMPO 1414/1418 20020G25KT BKN005
BECMG 1417/1418 19009KT 9999 BKN020 620207 530054 QNH3006INS
BECMG 1501/1502 20009KT 9000 -FZDZ BKN010 660006 530054 QNH3004INS
BECMG 1508/1509 23009KT 9000 -SN BKN004 OVC011 620044 530054 QNH3002INS TX00/1419Z TNM11/1414Z



MET'MAP, your aeronautical weather chart ! - Copyright ORBIFLY December 2007 - Disclaimer

ORBIFLY MET'MAP TEAM :

Programming & Development : Alexandra Zaïnal
Concept & Development : Baudouin d'Aumeries
Co-Development & Prog : Marc-Olivier Méhu
Technical & hardware support : Manuel Goepfert

Contact : metmap@orbifly.com




SOURCES & CREDITS :

   NOAA       Earth
Advisory